createdAt,value
2019-04-10T00:02:16.197Z,95897.98
2019-04-10T00:04:48.063Z,95894.39
2019-04-10T00:07:21.148Z,95891.63
2019-04-10T00:09:53.603Z,95890.91
2019-04-10T00:12:25.565Z,95890.63
2019-04-10T00:14:57.603Z,95894.27
2019-04-10T00:17:29.317Z,95881.57
2019-04-10T00:20:02.402Z,95884.23
2019-04-10T00:22:34.246Z,95875.41
2019-04-10T00:25:06.197Z,95875.04
2019-04-10T00:27:38.936Z,95874.72
2019-04-10T00:30:11.298Z,95874.28
2019-04-10T00:32:43.930Z,95872.97
2019-04-10T00:35:15.631Z,95876.05
2019-04-10T00:37:47.381Z,95880.99
2019-04-10T00:40:19.330Z,95887.03
2019-04-10T00:42:51.609Z,95885.05
2019-04-10T00:45:23.652Z,95888.30
2019-04-10T00:47:55.338Z,95885.05
2019-04-10T00:50:27.145Z,95885.23
2019-04-10T00:52:58.862Z,95885.23
2019-04-10T00:55:30.603Z,95883.23
2019-04-10T00:58:02.364Z,95879.63
2019-04-10T01:00:36.455Z,95885.84
2019-04-10T01:03:09.279Z,95880.77
2019-04-10T01:05:41.646Z,95885.21
2019-04-10T01:08:13.378Z,95888.19
2019-04-10T01:10:46.236Z,95888.52
2019-04-10T01:13:18.816Z,95884.26
2019-04-10T01:15:51.002Z,95875.91
2019-04-10T01:18:23.392Z,95882.33
2019-04-10T01:20:55.691Z,95877.02
2019-04-10T01:23:27.570Z,95875.95
2019-04-10T01:25:59.597Z,95880.04
2019-04-10T01:28:31.329Z,95891.02
2019-04-10T01:31:03.225Z,95888.52
2019-04-10T01:33:35.004Z,95887.55
2019-04-10T01:36:07.021Z,95889.17
2019-04-10T01:38:39.786Z,95887.21
2019-04-10T01:41:11.865Z,95884.89
2019-04-10T01:43:43.539Z,95880.59
2019-04-10T01:46:15.915Z,95878.84
2019-04-10T01:48:47.754Z,95884.91
2019-04-10T01:51:19.808Z,95887.22
2019-04-10T01:53:52.376Z,95879.70
2019-04-10T01:56:30.187Z,95873.47
2019-04-10T01:58:57.445Z,95870.83
2019-04-10T02:01:32.696Z,95871.18
2019-04-10T02:04:04.737Z,95862.97
2019-04-10T02:06:36.495Z,95866.56
2019-04-10T02:09:11.044Z,95878.67
2019-04-10T02:11:42.997Z,95867.37
2019-04-10T02:14:14.711Z,95869.85
2019-04-10T02:16:47.296Z,95869.89
2019-04-10T02:19:19.008Z,95873.16
2019-04-10T02:21:51.652Z,95867.25
2019-04-10T02:24:25.130Z,95871.17
2019-04-10T02:26:58.120Z,95868.25
2019-04-10T02:29:29.933Z,95865.61
2019-04-10T02:32:02.168Z,95862.34
2019-04-10T02:34:34.444Z,95864.48
2019-04-10T02:37:06.861Z,95862.67
2019-04-10T02:39:46.082Z,95859.06
2019-04-10T02:42:14.252Z,95859.73
2019-04-10T02:44:46.150Z,95861.36
2019-04-10T02:47:19.220Z,95862.66
2019-04-10T02:49:52.222Z,95853.17
2019-04-10T02:52:24.633Z,95854.48
2019-04-10T02:54:57.807Z,95854.50
2019-04-10T02:57:29.878Z,95860.55
2019-04-10T03:00:03.695Z,95852.84
2019-04-10T03:02:38.697Z,95854.15
2019-04-10T03:05:13.588Z,95853.50
2019-04-10T03:07:46.429Z,95852.55
2019-04-10T03:10:27.714Z,95860.72
2019-04-10T03:12:52.596Z,95860.72
2019-04-10T03:15:25.195Z,95863.50
2019-04-10T03:17:57.167Z,95859.08
2019-04-10T03:20:30.064Z,95855.81
2019-04-10T03:23:02.062Z,95858.92
2019-04-10T03:25:35.085Z,95854.84
2019-04-10T03:28:07.213Z,95852.06
2019-04-10T03:30:41.257Z,95853.84
2019-04-10T03:33:33.753Z,95852.55
2019-04-10T03:36:05.301Z,95851.23
2019-04-10T03:38:49.453Z,95855.48
2019-04-10T03:41:12.270Z,95855.48
2019-04-10T03:43:45.810Z,95855.98
2019-04-10T03:46:17.585Z,95853.52
2019-04-10T03:48:49.505Z,95853.20
2019-04-10T03:51:22.859Z,95853.34
2019-04-10T03:53:54.931Z,95857.61
2019-04-10T03:56:26.974Z,95855.97
2019-04-10T03:58:59.877Z,95859.91
2019-04-10T04:01:32.045Z,95858.41
2019-04-10T04:04:04.885Z,95861.38
2019-04-10T04:06:36.945Z,95860.38
2019-04-10T04:09:11.581Z,95863.00
2019-04-10T04:11:42.609Z,95861.69
2019-04-10T04:14:14.488Z,95864.64
2019-04-10T04:16:47.064Z,95867.89
2019-04-10T04:19:18.960Z,95866.76
2019-04-10T04:21:50.717Z,95862.98
2019-04-10T04:24:25.488Z,95863.47
2019-04-10T04:26:58.696Z,95869.53
2019-04-10T04:29:30.536Z,95865.27
2019-04-10T04:32:02.377Z,95872.48
2019-04-10T04:34:34.678Z,95871.82
2019-04-10T04:37:06.630Z,95866.59
2019-04-10T04:39:39.616Z,95871.47
2019-04-10T04:42:11.601Z,95871.31
2019-04-10T04:44:43.461Z,95873.11
2019-04-10T04:47:15.662Z,95873.08
2019-04-10T04:49:47.667Z,95875.39
2019-04-10T04:52:20.401Z,95877.85
2019-04-10T04:54:53.275Z,95878.98
2019-04-10T04:57:25.310Z,95883.88
2019-04-10T04:59:57.063Z,95882.24
2019-04-10T05:02:28.981Z,95881.94
2019-04-10T05:05:00.754Z,95887.84
2019-04-10T05:07:33.363Z,95889.14
2019-04-10T05:10:07.046Z,95891.27
2019-04-10T05:12:38.982Z,95890.45
2019-04-10T05:15:12.874Z,95897.17
2019-04-10T05:17:45.022Z,95898.17
2019-04-10T05:20:17.088Z,95904.36
2019-04-10T05:22:49.470Z,95903.90
2019-04-10T05:25:22.323Z,95902.44
2019-04-10T05:27:55.291Z,95907.33
2019-04-10T05:30:27.305Z,95904.41
2019-04-10T05:32:59.789Z,95909.82
2019-04-10T05:35:32.050Z,95907.50
2019-04-10T05:38:04.533Z,95906.71
2019-04-10T05:40:36.722Z,95912.57
2019-04-10T05:43:09.295Z,95914.88
2019-04-10T05:45:42.175Z,95914.73
2019-04-10T05:48:15.258Z,95914.73
2019-04-10T05:50:54.899Z,95909.52
2019-04-10T05:53:21.045Z,95914.59
2019-04-10T05:55:53.800Z,95912.72
2019-04-10T05:58:25.867Z,95919.65
2019-04-10T06:00:59.263Z,95920.78
2019-04-10T06:03:31.012Z,95926.55
2019-04-10T06:06:04.074Z,95920.33
2019-04-10T06:08:37.346Z,95921.64
2019-04-10T06:11:09.305Z,95928.02
2019-04-10T06:13:41.065Z,95930.48
2019-04-10T06:16:12.874Z,95929.15
2019-04-10T06:18:45.179Z,95928.84
2019-04-10T06:21:17.108Z,95932.59
2019-04-10T06:23:49.845Z,95934.06
2019-04-10T06:26:21.974Z,95931.46
2019-04-10T06:28:54.742Z,95932.13
2019-04-10T06:31:26.658Z,95929.79
2019-04-10T06:33:58.497Z,95929.66
2019-04-10T06:36:33.324Z,95929.98
2019-04-10T06:39:07.294Z,95934.39
2019-04-10T06:41:39.130Z,95924.55
2019-04-10T06:44:12.238Z,95917.02
2019-04-10T06:46:44.477Z,95925.03
2019-04-10T06:49:17.494Z,95923.43
2019-04-10T06:51:49.482Z,95921.59
2019-04-10T06:54:21.300Z,95926.85
2019-04-10T06:56:53.117Z,95931.42
2019-04-10T06:59:26.205Z,95925.36
2019-04-10T07:02:11.392Z,95921.23
2019-04-10T07:04:43.135Z,95931.07
2019-04-10T07:07:10.951Z,95927.62
2019-04-10T07:09:38.644Z,95934.34
2019-04-10T07:12:12.195Z,95925.63
2019-04-10T07:14:47.657Z,95928.38
2019-04-10T07:17:17.994Z,95927.42
2019-04-10T07:19:49.791Z,95931.97
2019-04-10T07:22:22.830Z,95931.63
2019-04-10T07:24:56.374Z,95926.86
2019-04-10T07:27:33.515Z,95925.22
2019-04-10T07:30:03.590Z,95924.75
2019-04-10T07:32:36.137Z,95925.69
2019-04-10T07:35:08.968Z,95932.28
2019-04-10T07:37:40.778Z,95941.30
2019-04-10T07:40:12.741Z,95937.50
2019-04-10T07:42:44.571Z,95937.80
2019-04-10T07:45:17.044Z,95935.80
2019-04-10T07:47:48.854Z,95936.71
2019-04-10T07:50:20.797Z,95937.45
2019-04-10T07:52:52.559Z,95940.44
2019-04-10T07:55:25.360Z,95939.88
2019-04-10T07:57:57.398Z,95944.58
2019-04-10T08:00:29.229Z,95949.55
2019-04-10T08:03:00.989Z,95953.91
2019-04-10T08:05:33.296Z,95947.27
2019-04-10T08:08:05.277Z,95946.56
2019-04-10T08:10:37.348Z,95954.33
2019-04-10T08:13:09.179Z,95950.58
2019-04-10T08:15:41.284Z,95954.69
2019-04-10T08:18:13.347Z,95956.45
2019-04-10T08:20:45.155Z,95954.28
2019-04-10T08:23:17.565Z,95954.39
2019-04-10T08:25:49.657Z,95950.34
2019-04-10T08:28:22.047Z,95964.66
2019-04-10T08:30:54.658Z,95957.16
2019-04-10T08:33:26.485Z,95962.25
2019-04-10T08:35:58.987Z,95963.61
2019-04-10T08:38:30.776Z,95953.59
2019-04-10T08:41:02.912Z,95955.61
2019-04-10T08:43:34.644Z,95958.13
2019-04-10T08:46:06.522Z,95962.36
2019-04-10T08:48:39.194Z,95960.98
2019-04-10T08:51:11.957Z,95964.23
2019-04-10T08:53:44.599Z,95966.15
2019-04-10T08:56:16.523Z,95966.63
2019-04-10T08:58:48.398Z,95966.45
2019-04-10T09:01:21.469Z,95966.66
2019-04-10T09:03:53.555Z,95967.33
2019-04-10T09:06:25.294Z,95962.88
2019-04-10T09:08:57.258Z,95963.05
2019-04-10T09:11:30.154Z,95955.09
2019-04-10T09:14:03.135Z,95952.45
2019-04-10T09:16:34.909Z,95957.05
2019-04-10T09:19:06.785Z,95957.39
2019-04-10T09:21:39.648Z,95961.54
2019-04-10T09:24:14.571Z,95960.80
2019-04-10T09:26:45.132Z,95959.13
2019-04-10T09:29:18.093Z,95961.30
2019-04-10T09:31:50.311Z,95963.99
2019-04-10T09:34:23.352Z,95959.89
2019-04-10T09:36:55.173Z,95963.75
2019-04-10T09:39:29.600Z,95963.94
2019-04-10T09:42:01.780Z,95967.70
2019-04-10T09:44:35.837Z,95962.94
2019-04-10T09:47:09.625Z,95963.67
2019-04-10T09:49:45.857Z,95962.58
2019-04-10T09:52:15.520Z,95977.16
2019-04-10T09:54:47.361Z,95973.16
2019-04-10T09:57:20.116Z,95964.78
2019-04-10T09:59:52.627Z,95967.01
2019-04-10T10:02:25.241Z,95967.50
2019-04-10T10:04:57.785Z,95973.77
2019-04-10T10:07:29.902Z,95965.77
2019-04-10T10:10:02.163Z,95968.31
2019-04-10T10:12:36.402Z,95969.28
2019-04-10T10:15:09.507Z,95962.86
2019-04-10T10:17:41.513Z,95967.96
2019-04-10T10:20:15.376Z,95973.06
2019-04-10T10:22:47.468Z,95971.98
2019-04-10T10:25:19.513Z,95972.77
2019-04-10T10:27:51.267Z,95970.52
2019-04-10T10:30:23.325Z,95973.91
2019-04-10T10:32:55.230Z,95975.77
2019-04-10T10:35:27.328Z,95973.98
2019-04-10T10:37:59.233Z,95974.59
2019-04-10T10:40:32.240Z,95972.84
2019-04-10T10:43:04.446Z,95972.53
2019-04-10T10:45:36.689Z,95972.12
2019-04-10T10:48:09.620Z,95976.41
2019-04-10T10:50:41.642Z,95981.00
2019-04-10T10:53:14.336Z,95973.92
2019-04-10T10:55:47.514Z,95979.87
2019-04-10T10:58:19.729Z,95980.56
2019-04-10T11:00:51.766Z,95979.52
2019-04-10T11:03:24.494Z,95975.21
2019-04-10T11:05:56.437Z,95977.22
2019-04-10T11:08:29.449Z,95980.99
2019-04-10T11:11:01.521Z,95981.73
2019-04-10T11:13:33.352Z,95984.98
2019-04-10T11:16:07.106Z,95985.33
2019-04-10T11:18:38.831Z,95984.79
2019-04-10T11:21:12.749Z,95983.48
2019-04-10T11:23:44.704Z,95977.95
2019-04-10T11:26:21.510Z,95976.27
2019-04-10T11:28:50.185Z,95973.79
2019-04-10T11:31:23.788Z,95978.83
2019-04-10T11:33:56.711Z,95983.58
2019-04-10T11:36:29.995Z,95975.80
2019-04-10T11:39:11.988Z,95976.47
2019-04-10T11:41:37.398Z,95979.02
2019-04-10T11:44:11.551Z,95982.19
2019-04-10T11:46:44.022Z,95978.33
2019-04-10T11:49:17.792Z,95972.31
2019-04-10T11:51:52.993Z,95983.13
2019-04-10T11:54:26.922Z,95985.25
2019-04-10T11:57:19.816Z,95986.75
2019-04-10T11:59:50.709Z,95986.48
2019-04-10T12:02:24.956Z,95983.39
2019-04-10T12:05:01.585Z,95983.80
2019-04-10T12:08:00.062Z,95988.27
2019-04-10T12:12:37.611Z,95997.39
2019-04-10T12:15:10.197Z,95992.81
2019-04-10T12:17:43.092Z,95996.16
2019-04-10T12:20:16.632Z,95991.04
2019-04-10T12:22:48.813Z,95992.89
2019-04-10T12:25:21.274Z,95987.86
2019-04-10T12:27:53.560Z,95988.83
2019-04-10T12:30:26.922Z,95994.78
2019-04-10T12:32:59.133Z,95991.13
2019-04-10T12:35:31.916Z,95993.20
2019-04-10T12:38:09.732Z,95990.77
2019-04-10T12:40:38.950Z,95988.20
2019-04-10T12:43:12.682Z,95990.84
2019-04-10T12:45:44.587Z,95997.13
2019-04-10T12:48:16.680Z,95999.67
2019-04-10T12:50:49.495Z,95998.91
2019-04-10T12:53:21.591Z,95995.75
2019-04-10T12:55:53.641Z,95996.80
2019-04-10T12:58:26.619Z,95998.14
2019-04-10T13:00:58.520Z,96001.13
2019-04-10T13:03:31.325Z,96001.24
2019-04-10T13:06:03.388Z,95998.30
2019-04-10T13:08:54.673Z,95995.14
2019-04-10T13:11:10.019Z,95993.63
2019-04-10T13:13:42.291Z,96001.08
2019-04-10T13:16:14.279Z,95999.95
2019-04-10T13:18:46.860Z,96000.16
2019-04-10T13:21:20.238Z,96003.92
2019-04-10T13:23:53.030Z,95995.77
2019-04-10T13:26:26.013Z,95992.41
2019-04-10T13:28:58.155Z,95995.23
2019-04-10T13:31:30.045Z,95996.28
2019-04-10T13:34:02.809Z,95994.20
2019-04-10T13:36:35.630Z,95997.27
2019-04-10T13:39:08.754Z,95994.63
2019-04-10T13:41:40.828Z,95993.99
2019-04-10T13:44:14.049Z,95994.18
2019-04-10T13:46:45.929Z,95990.13
2019-04-10T13:49:17.818Z,95995.75
2019-04-10T13:51:50.072Z,95995.05
2019-04-10T13:54:22.816Z,95994.42
2019-04-10T13:56:55.215Z,95988.02
2019-04-10T13:59:27.103Z,95987.42
2019-04-10T14:01:59.003Z,95993.53
2019-04-10T14:04:31.312Z,95998.20
2019-04-10T14:07:04.935Z,96003.11
2019-04-10T14:09:43.985Z,95999.83
2019-04-10T14:12:12.890Z,95999.21
2019-04-10T14:14:48.890Z,95992.30
2019-04-10T14:17:21.534Z,96003.11
2019-04-10T14:19:54.116Z,96005.95
2019-04-10T14:22:26.102Z,96005.95
2019-04-10T14:24:58.889Z,96012.89
2019-04-10T14:27:32.097Z,96008.49
2019-04-10T14:30:06.985Z,96011.67
2019-04-10T14:32:39.858Z,96014.59
2019-04-10T14:35:12.195Z,96014.59
2019-04-10T14:37:43.951Z,96018.03
2019-04-10T14:40:16.820Z,96019.08
2019-04-10T14:42:49.442Z,96022.70
2019-04-10T14:45:21.667Z,96026.95
2019-04-10T14:47:53.936Z,96022.45
2019-04-10T14:50:26.187Z,96016.49
2019-04-10T14:52:59.155Z,96021.70
2019-04-10T14:55:31.617Z,96021.68
2019-04-10T14:58:03.971Z,96023.13
2019-04-10T15:00:51.003Z,96024.23
2019-04-10T15:03:24.369Z,96031.86
2019-04-10T15:05:58.286Z,96028.59
2019-04-10T15:08:31.472Z,96028.77
2019-04-10T15:11:04.517Z,96031.83
2019-04-10T15:13:36.698Z,96038.19
2019-04-10T15:16:12.707Z,96032.91
2019-04-10T15:18:45.838Z,96039.36
2019-04-10T15:21:18.661Z,96039.77
2019-04-10T15:23:51.079Z,96041.03
2019-04-10T15:26:23.996Z,96049.91
2019-04-10T15:28:56.250Z,96054.38
2019-04-10T15:31:29.063Z,96050.67
2019-04-10T15:34:01.629Z,96054.26
2019-04-10T15:36:33.997Z,96050.56
2019-04-10T15:39:09.223Z,96054.22
2019-04-10T15:41:41.336Z,96051.89
2019-04-10T15:44:15.371Z,96056.95
2019-04-10T15:46:49.059Z,96069.47
2019-04-10T15:49:21.170Z,96066.20
2019-04-10T15:51:53.712Z,96063.19
2019-04-10T15:54:25.818Z,96067.74
2019-04-10T15:56:58.344Z,96066.74
2019-04-10T15:59:30.326Z,96068.97
2019-04-10T16:02:03.536Z,96070.70
2019-04-10T16:04:35.842Z,96070.73
2019-04-10T16:07:08.240Z,96074.20
2019-04-10T16:09:47.468Z,96079.87
2019-04-10T16:12:18.621Z,96070.28
2019-04-10T16:14:50.917Z,96078.98
2019-04-10T16:17:31.439Z,96076.03
2019-04-10T16:20:17.601Z,96077.98
2019-04-10T16:23:08.094Z,96075.97
2019-04-10T16:25:44.763Z,96084.03
2019-04-10T16:28:17.910Z,96075.98
2019-04-10T16:30:50.900Z,96080.95
2019-04-10T16:33:23.209Z,96084.63
2019-04-10T16:35:55.251Z,96084.91
2019-04-10T16:38:27.189Z,96090.87
2019-04-10T16:40:58.963Z,96085.13
2019-04-10T16:43:30.874Z,96090.87
2019-04-10T16:46:03.265Z,96087.48
2019-04-10T16:48:35.839Z,96087.91
2019-04-10T16:51:08.144Z,96084.38
2019-04-10T16:53:41.227Z,96089.05
2019-04-10T16:56:21.400Z,96091.69
2019-04-10T16:58:53.184Z,96094.01
2019-04-10T17:01:25.188Z,96092.69
2019-04-10T17:03:57.152Z,96099.77
2019-04-10T17:06:30.262Z,96104.34
2019-04-10T17:09:02.709Z,96105.72
2019-04-10T17:11:36.864Z,96111.83
2019-04-10T17:14:09.000Z,96114.70
2019-04-10T17:16:41.951Z,96111.73
2019-04-10T17:19:14.033Z,96113.47
2019-04-10T17:21:46.739Z,96114.84
2019-04-10T17:24:18.893Z,96116.43
2019-04-10T17:26:52.054Z,96121.73
2019-04-10T17:29:25.032Z,96118.42
2019-04-10T17:31:57.156Z,96118.80
2019-04-10T17:34:30.454Z,96121.67
2019-04-10T17:37:02.898Z,96129.44
2019-04-10T17:39:35.561Z,96131.53
2019-04-10T17:42:08.111Z,96139.66
2019-04-10T17:44:40.307Z,96139.21
2019-04-10T17:47:12.739Z,96133.30
2019-04-10T17:49:44.924Z,96140.44
2019-04-10T17:52:17.057Z,96145.83
2019-04-10T17:54:49.203Z,96143.56
2019-04-10T17:57:33.657Z,96154.20
2019-04-10T17:59:58.578Z,96154.58
2019-04-10T18:03:19.074Z,96154.58
2019-04-10T18:05:57.090Z,96154.47
2019-04-10T18:08:30.102Z,96157.89
2019-04-10T18:11:02.067Z,96159.41
2019-04-10T18:13:38.413Z,96162.92
2019-04-10T18:16:12.967Z,96164.06
2019-04-10T18:18:45.702Z,96173.84
2019-04-10T18:21:20.273Z,96176.77
2019-04-10T18:23:52.526Z,96179.00
2019-04-10T18:26:27.744Z,96180.03
2019-04-10T18:29:00.852Z,96188.53
2019-04-10T18:31:34.736Z,96189.64
2019-04-10T18:34:10.163Z,96194.20
2019-04-10T18:36:42.604Z,96194.37
2019-04-10T18:39:19.408Z,96200.95
2019-04-10T18:41:51.996Z,96206.05
2019-04-10T18:44:25.333Z,96202.46
2019-04-10T18:46:57.595Z,96208.99
2019-04-10T18:49:29.842Z,96220.47
2019-04-10T18:52:03.208Z,96217.67
2019-04-10T18:54:36.050Z,96220.83
2019-04-10T18:57:09.346Z,96221.95
2019-04-10T18:59:54.606Z,96233.66
2019-04-10T19:02:48.840Z,96231.06
2019-04-10T19:05:24.751Z,96242.24
2019-04-10T19:07:57.027Z,96242.60
2019-04-10T19:10:30.605Z,96244.32
2019-04-10T19:13:05.602Z,96248.57
2019-04-10T19:15:39.913Z,96248.05
2019-04-10T19:18:13.117Z,96251.72
2019-04-10T19:20:45.631Z,96255.55
2019-04-10T19:23:21.009Z,96255.73
2019-04-10T19:25:54.674Z,96267.30
2019-04-10T19:28:32.265Z,96248.34
2019-04-10T19:31:11.102Z,96270.82
2019-04-10T19:33:40.156Z,96269.71
2019-04-10T19:36:12.170Z,96276.74
2019-04-10T19:38:45.269Z,96268.38
2019-04-10T19:41:25.750Z,96276.65
2019-04-10T19:43:52.709Z,96280.28
2019-04-10T19:46:25.842Z,96286.35
2019-04-10T19:48:58.048Z,96288.48
2019-04-10T19:51:30.319Z,96286.36
2019-04-10T19:54:05.342Z,96290.95
2019-04-10T19:56:37.001Z,96285.68
2019-04-10T19:59:10.440Z,96288.95
2019-04-10T20:01:42.752Z,96297.80
2019-04-10T20:04:14.871Z,96292.92
2019-04-10T20:06:47.042Z,96295.38
2019-04-10T20:09:20.088Z,96303.70
2019-04-10T20:11:55.282Z,96297.44
2019-04-10T20:14:25.963Z,96301.41
2019-04-10T20:16:58.117Z,96300.78
2019-04-10T20:19:30.740Z,96301.89
2019-04-10T20:22:04.114Z,96296.12
2019-04-10T20:24:36.721Z,96295.75
2019-04-10T20:27:09.909Z,96294.55
2019-04-10T20:29:43.431Z,96296.49
2019-04-10T20:32:17.857Z,96298.72
2019-04-10T20:34:49.958Z,96308.77
2019-04-10T20:37:22.930Z,96305.55
2019-04-10T20:39:55.881Z,96304.09
2019-04-10T20:42:28.166Z,96306.25
2019-04-10T20:45:00.879Z,96313.72
2019-04-10T20:47:35.139Z,96302.92
2019-04-10T20:50:07.931Z,96316.64
2019-04-10T20:52:41.033Z,96311.63
2019-04-10T20:55:13.834Z,96317.84
2019-04-10T20:57:46.122Z,96322.27
2019-04-10T21:00:30.070Z,96331.22
2019-04-10T21:03:02.837Z,96337.08
2019-04-10T21:05:35.897Z,96334.41
2019-04-10T21:08:09.305Z,96343.03
2019-04-10T21:10:41.280Z,96341.61
2019-04-10T21:13:13.280Z,96349.37
2019-04-10T21:15:46.242Z,96345.65
2019-04-10T21:18:19.507Z,96344.91
2019-04-10T21:20:51.795Z,96356.53
2019-04-10T21:23:23.831Z,96348.06
2019-04-10T21:25:55.712Z,96351.29
2019-04-10T21:28:28.314Z,96351.45
2019-04-10T21:31:25.714Z,96360.55
2019-04-10T21:34:20.254Z,96361.84
2019-04-10T21:36:53.282Z,96355.34
2019-04-10T21:39:25.583Z,96351.94
2019-04-10T21:42:10.126Z,96353.56
2019-04-10T21:44:31.497Z,96360.00
2019-04-10T21:47:03.565Z,96353.48
2019-04-10T21:49:35.943Z,96355.86
2019-04-10T21:52:07.863Z,96355.92
2019-04-10T21:54:48.521Z,96352.31
2019-04-10T21:57:13.814Z,96355.13
2019-04-10T21:59:45.714Z,96353.25
2019-04-10T22:02:17.748Z,96360.28
2019-04-10T22:04:49.838Z,96345.64
2019-04-10T22:07:35.030Z,96349.02
2019-04-10T22:10:17.905Z,96355.13
2019-04-10T22:12:52.158Z,96353.51
2019-04-10T22:15:31.190Z,96350.81
2019-04-10T22:18:03.145Z,96353.05
2019-04-10T22:20:36.023Z,96354.20
2019-04-10T22:23:09.833Z,96362.62
2019-04-10T22:25:41.742Z,96367.07
2019-04-10T22:28:14.876Z,96363.02
2019-04-10T22:30:46.922Z,96370.03
2019-04-10T22:33:18.768Z,96374.58
2019-04-10T22:35:50.971Z,96376.11
2019-04-10T22:38:22.922Z,96374.56
2019-04-10T22:40:55.975Z,96375.02
2019-04-10T22:43:28.074Z,96375.88
2019-04-10T22:46:00.465Z,96382.13
2019-04-10T22:48:32.894Z,96378.48
2019-04-10T22:51:07.967Z,96382.34
2019-04-10T22:53:39.648Z,96377.59
2019-04-10T22:56:11.690Z,96379.11
2019-04-10T22:58:44.181Z,96384.34
2019-04-10T23:01:16.167Z,96382.77
2019-04-10T23:03:48.078Z,96381.46
2019-04-10T23:06:20.831Z,96380.32
2019-04-10T23:08:52.757Z,96383.02
2019-04-10T23:11:34.847Z,96385.12
2019-04-10T23:13:58.522Z,96384.55
2019-04-10T23:16:30.499Z,96381.77
2019-04-10T23:19:03.452Z,96390.88
2019-04-10T23:21:36.603Z,96388.43
2019-04-10T23:24:09.540Z,96391.25
2019-04-10T23:26:41.607Z,96394.08
2019-04-10T23:29:13.923Z,96391.34
2019-04-10T23:31:45.889Z,96394.30
2019-04-10T23:34:18.867Z,96399.64
2019-04-10T23:36:50.879Z,96394.69
2019-04-10T23:39:23.902Z,96402.52
2019-04-10T23:41:56.906Z,96402.55
2019-04-10T23:44:29.158Z,96406.13
2019-04-10T23:47:02.046Z,96403.84
2019-04-10T23:49:33.922Z,96406.94
2019-04-10T23:52:07.606Z,96401.64
2019-04-10T23:54:41.542Z,96411.67
2019-04-10T23:57:13.592Z,96414.34
2019-04-10T23:59:45.300Z,96413.58
